メインページ
METAR-TAF:

METAR-TAF

空港 :

カーブル, アフガニスタン

カーブル国際空港

緯度: 34-38N, 経度: 069-12E, 海抜: 1789m

現時点の気象観測

当レポートは39分前の19:50(UTC)に作成
南/南西の風 5kt、から西の間で変化する
気温 24°C
湿度 31%
気圧 1012 hPa
視程10km以上
1,500メートル以下は雲なし、積乱雲なし

METAR: OAKB 231950Z 21005KT 180V270 CAVOK 24/06 Q1012 NOSIG RMK BLU BLU

時間: 00:59 (20:29 UTC)

予報

当レポートは3時間24分前の17:05(UTC)に作成
予報は23日の 18時(UTC)から 24日の 18時(UTC)まで有効
の風 12kt
視程10km以上
1,500メートル以下は雲なし、積乱雲なし
23日の 18時(UTC)から 23日の 20時(UTC)まで徐々に
変向風 2kt
24日の 01時(UTC)から 24日の 04時(UTC)まで一時的に
視程: 5000m
煙霧
24日の 06時(UTC)から 24日の 08時(UTC)まで徐々に
の風 12kt
24日の 10時(UTC)から 24日の 12時(UTC)まで一時的に
北/北東の風 12kt、最大22ktの突風を伴う

TAF: OAKB 231705Z 2318/2418 36012KT CAVOK BECMG 2318/2320 VRB02KT TEMPO 2401/2404 5000 HZ BECMG 2406/2408 35012KT TEMPO 2410/2412 03012G22KT

4,000以上の空港の気象観測と天気予報(METAR報とTAF報)

利用可能な観測所は地図上に黄色い丸と赤い丸で示す。

丸の上にカーソルを重ねると観測所名を参照できる。

次にクリックすると気象観測と天気予報を参照できる。

マップの切り替え:黒色「×」印の緑ボタンをクリックして拡大、「-」印の緑ボタンをクリックして縮小、緑色の三角印をクリックして隣りの地図に切り替え


METAR-TAF: